createdAt,value
2018-07-26T00:00:19.869Z,7.80
2018-07-26T00:02:48.933Z,8.90
2018-07-26T00:05:18.129Z,8.70
2018-07-26T00:07:47.326Z,9.23
2018-07-26T00:10:16.861Z,9.20
2018-07-26T00:12:46.010Z,8.27
2018-07-26T00:15:15.154Z,8.73
2018-07-26T00:20:44.646Z,8.33
2018-07-26T00:23:20.089Z,8.60
2018-07-26T00:25:49.266Z,8.47
2018-07-26T00:28:18.406Z,8.57
2018-07-26T00:30:47.688Z,10.50
2018-07-26T00:33:16.867Z,9.20
2018-07-26T00:35:46.086Z,8.50
2018-07-26T00:38:15.239Z,10.43
2018-07-26T00:40:44.418Z,9.40
2018-07-26T00:43:13.578Z,9.07
2018-07-26T00:45:42.728Z,9.17
2018-07-26T00:48:11.907Z,9.53
2018-07-26T00:50:41.030Z,8.93
2018-07-26T00:53:10.168Z,9.40
2018-07-26T00:55:39.355Z,10.80
2018-07-26T00:58:08.748Z,10.07
2018-07-26T01:00:37.992Z,8.60
2018-07-26T01:03:07.172Z,9.30
2018-07-26T01:08:36.682Z,8.40
2018-07-26T01:11:05.857Z,10.20
2018-07-26T01:13:35.001Z,11.53
2018-07-26T01:16:04.205Z,10.23
2018-07-26T01:18:33.360Z,8.97
2018-07-26T01:21:02.560Z,9.43
2018-07-26T01:23:31.785Z,9.87
2018-07-26T01:26:00.930Z,9.57
2018-07-26T01:28:30.088Z,9.80
2018-07-26T01:30:59.119Z,11.30
2018-07-26T01:33:28.349Z,11.30
2018-07-26T01:35:57.488Z,11.23
2018-07-26T01:38:26.702Z,9.53
2018-07-26T01:40:55.869Z,9.70
2018-07-26T01:43:48.747Z,9.27
2018-07-26T01:46:19.278Z,9.40
2018-07-26T01:48:48.468Z,8.77
2018-07-26T01:51:17.626Z,9.87
2018-07-26T01:53:46.969Z,9.90
2018-07-26T01:56:16.195Z,9.77
2018-07-26T01:58:45.935Z,10.30
2018-07-26T02:01:15.136Z,9.60
2018-07-26T02:03:44.312Z,10.10
2018-07-26T02:06:13.461Z,10.00
2018-07-26T02:08:42.612Z,10.83
2018-07-26T02:11:11.806Z,10.27
2018-07-26T02:13:41.001Z,10.53
2018-07-26T02:16:20.693Z,9.80
2018-07-26T02:18:49.864Z,10.30
2018-07-26T02:21:19.129Z,8.70
2018-07-26T02:23:48.309Z,8.83
2018-07-26T02:26:17.463Z,9.60
2018-07-26T02:28:46.606Z,8.97
2018-07-26T02:31:15.864Z,9.70
2018-07-26T02:33:45.017Z,9.03
2018-07-26T02:36:14.175Z,9.00
2018-07-26T02:38:43.135Z,10.57
2018-07-26T02:41:12.286Z,9.90
2018-07-26T02:43:41.449Z,11.43
2018-07-26T02:46:10.728Z,9.50
2018-07-26T02:48:39.868Z,10.60
2018-07-26T02:51:09.021Z,10.40
2018-07-26T02:53:38.189Z,10.60
2018-07-26T02:56:07.336Z,9.97
2018-07-26T02:58:36.657Z,9.43
2018-07-26T03:01:05.886Z,8.83
2018-07-26T03:03:35.044Z,8.90
2018-07-26T03:06:04.205Z,9.40
2018-07-26T03:08:33.407Z,9.53
2018-07-26T03:11:02.563Z,8.87
2018-07-26T03:13:31.769Z,9.30
2018-07-26T03:16:00.938Z,8.77
2018-07-26T03:18:30.188Z,10.27
2018-07-26T03:20:59.416Z,8.87
2018-07-26T03:23:28.590Z,8.90
2018-07-26T03:25:57.742Z,9.23
2018-07-26T03:28:26.893Z,9.10
2018-07-26T03:30:56.061Z,8.93
2018-07-26T03:33:25.211Z,8.83
2018-07-26T03:35:54.362Z,8.97
2018-07-26T03:38:23.541Z,9.17
2018-07-26T03:41:17.532Z,9.47
2018-07-26T03:43:46.728Z,8.93
2018-07-26T03:46:15.895Z,8.17
2018-07-26T03:48:45.042Z,9.00
2018-07-26T03:51:14.272Z,9.27
2018-07-26T03:53:43.389Z,8.53
2018-07-26T03:56:12.554Z,11.13
2018-07-26T03:58:41.737Z,13.03
2018-07-26T04:01:10.994Z,9.00
2018-07-26T04:03:40.140Z,9.50
2018-07-26T04:06:09.317Z,9.03
2018-07-26T04:08:38.457Z,9.77
2018-07-26T04:11:07.600Z,8.00
2018-07-26T04:13:36.796Z,8.80
2018-07-26T04:16:06.245Z,9.17
2018-07-26T04:18:35.408Z,9.60
2018-07-26T04:21:04.581Z,9.03
2018-07-26T04:23:33.731Z,9.57
2018-07-26T04:26:02.869Z,9.03
2018-07-26T04:28:32.056Z,13.47
2018-07-26T04:31:01.205Z,8.73
2018-07-26T04:33:30.338Z,8.00
2018-07-26T04:35:59.555Z,9.27
2018-07-26T04:38:28.700Z,9.87
2018-07-26T04:40:57.854Z,13.80
2018-07-26T04:43:27.076Z,14.03
2018-07-26T04:45:56.209Z,12.80
2018-07-26T04:48:25.377Z,15.10
2018-07-26T04:51:19.993Z,9.07
2018-07-26T04:53:49.230Z,14.97
2018-07-26T04:56:18.382Z,10.00
2018-07-26T04:58:47.651Z,9.00
2018-07-26T05:01:17.092Z,16.80
2018-07-26T05:03:46.300Z,11.63
2018-07-26T05:06:15.508Z,8.70
2018-07-26T05:08:44.673Z,15.60
2018-07-26T05:11:13.813Z,15.13
2018-07-26T05:13:43.169Z,12.77
2018-07-26T05:16:12.433Z,12.27
2018-07-26T05:18:41.582Z,8.00
2018-07-26T05:21:10.944Z,11.03
2018-07-26T05:23:40.117Z,15.73
2018-07-26T05:26:09.291Z,15.33
2018-07-26T05:28:38.486Z,14.40
2018-07-26T05:31:07.650Z,16.60
2018-07-26T05:36:36.981Z,15.80
2018-07-26T05:39:09.835Z,10.47
2018-07-26T05:41:39.389Z,9.40
2018-07-26T05:44:08.573Z,9.77
2018-07-26T05:46:37.766Z,16.30
2018-07-26T05:49:07.070Z,15.77
2018-07-26T05:51:36.285Z,13.03
2018-07-26T05:54:05.505Z,11.40
2018-07-26T05:56:34.741Z,8.53
2018-07-26T05:59:03.918Z,10.60
2018-07-26T06:01:33.117Z,11.97
2018-07-26T06:04:02.343Z,11.77
2018-07-26T06:06:31.497Z,9.20
2018-07-26T06:09:00.640Z,11.40
2018-07-26T06:11:29.811Z,10.13
2018-07-26T06:13:58.959Z,11.50
2018-07-26T06:16:28.103Z,10.70
2018-07-26T06:18:57.141Z,10.90
2018-07-26T06:21:26.342Z,9.73
2018-07-26T06:23:55.493Z,9.27
2018-07-26T06:26:24.873Z,8.57
2018-07-26T06:29:19.308Z,8.40
2018-07-26T06:31:48.540Z,10.37
2018-07-26T06:34:17.691Z,9.10
2018-07-26T06:36:46.829Z,10.90
2018-07-26T06:39:16.013Z,8.53
2018-07-26T06:41:45.393Z,9.27
2018-07-26T06:44:15.237Z,8.60
2018-07-26T06:46:44.449Z,8.53
2018-07-26T06:49:13.599Z,8.07
2018-07-26T06:51:42.812Z,8.20
2018-07-26T06:54:11.949Z,8.67
2018-07-26T06:59:41.902Z,8.60
2018-07-26T07:02:20.861Z,8.77
2018-07-26T07:04:50.057Z,8.30
2018-07-26T07:07:19.238Z,11.07
2018-07-26T07:09:48.437Z,8.67
2018-07-26T07:12:17.781Z,9.00
2018-07-26T07:14:47.005Z,8.70
2018-07-26T07:17:16.158Z,8.10
2018-07-26T07:19:45.346Z,8.33
2018-07-26T07:22:14.529Z,8.53
2018-07-26T07:24:43.682Z,8.47
2018-07-26T07:27:13.619Z,8.47
2018-07-26T07:29:42.881Z,7.87
2018-07-26T07:32:20.233Z,8.00
2018-07-26T07:34:49.368Z,8.60
2018-07-26T07:37:20.050Z,8.30
2018-07-26T07:39:49.201Z,7.97
2018-07-26T07:42:18.407Z,7.47
2018-07-26T07:44:47.605Z,7.33
2018-07-26T07:47:16.818Z,7.47
2018-07-26T07:49:45.947Z,7.00
2018-07-26T07:52:15.421Z,7.70
2018-07-26T07:54:44.569Z,7.50
2018-07-26T07:57:13.777Z,7.90
2018-07-26T07:59:43.082Z,7.07
2018-07-26T08:02:20.094Z,7.93
2018-07-26T08:04:49.286Z,7.20
2018-07-26T08:07:21.584Z,6.83
2018-07-26T08:09:50.784Z,7.63
2018-07-26T08:12:19.929Z,7.03
2018-07-26T08:14:49.096Z,7.37
2018-07-26T08:17:18.350Z,7.20
2018-07-26T08:19:47.509Z,8.10
2018-07-26T08:22:16.679Z,7.20
2018-07-26T08:24:45.859Z,6.93
2018-07-26T08:27:15.011Z,7.13
2018-07-26T08:29:44.154Z,8.07
2018-07-26T08:32:20.081Z,7.20
2018-07-26T08:35:36.990Z,7.87
2018-07-26T08:38:06.241Z,6.80
2018-07-26T08:40:35.486Z,7.23
2018-07-26T08:43:04.665Z,6.17
2018-07-26T08:45:33.838Z,6.03
2018-07-26T08:48:03.025Z,6.33
2018-07-26T08:50:32.256Z,6.73
2018-07-26T08:53:01.694Z,7.37
2018-07-26T08:55:30.877Z,6.30
2018-07-26T08:58:00.015Z,6.60
2018-07-26T09:00:29.207Z,5.73
2018-07-26T09:03:18.989Z,6.23
2018-07-26T09:05:48.531Z,6.40
2018-07-26T09:08:17.683Z,5.90
2018-07-26T09:10:46.856Z,6.17
2018-07-26T09:13:16.033Z,6.63
2018-07-26T09:15:45.171Z,6.90
2018-07-26T09:18:14.395Z,7.00
2018-07-26T09:20:43.633Z,6.47
2018-07-26T09:23:12.793Z,6.70
2018-07-26T09:25:41.929Z,6.50
2018-07-26T09:28:11.115Z,6.47
2018-07-26T09:33:41.364Z,7.13
2018-07-26T09:36:10.553Z,7.40
2018-07-26T09:38:39.709Z,6.20
2018-07-26T09:41:08.959Z,7.20
2018-07-26T09:43:38.105Z,7.10
2018-07-26T09:46:07.260Z,6.07
2018-07-26T09:48:36.487Z,5.97
2018-07-26T09:51:05.628Z,6.33
2018-07-26T09:53:34.768Z,7.00
2018-07-26T09:56:20.070Z,6.30
2018-07-26T09:58:49.204Z,5.90
2018-07-26T10:01:23.647Z,6.43
2018-07-26T10:03:52.790Z,6.17
2018-07-26T10:06:22.386Z,6.20
2018-07-26T10:08:51.581Z,4.93
2018-07-26T10:11:20.718Z,6.30
2018-07-26T10:13:49.908Z,5.77
2018-07-26T10:16:19.690Z,6.57
2018-07-26T10:18:48.858Z,5.30
2018-07-26T10:21:18.013Z,5.03
2018-07-26T10:23:47.253Z,6.13
2018-07-26T10:26:22.326Z,6.33
2018-07-26T10:28:51.586Z,5.50
2018-07-26T10:31:20.724Z,5.30
2018-07-26T10:33:49.857Z,5.20
2018-07-26T10:36:19.060Z,5.90
2018-07-26T10:38:48.206Z,5.33
2018-07-26T10:41:17.361Z,5.87
2018-07-26T10:43:46.550Z,5.77
2018-07-26T10:46:15.694Z,5.67
2018-07-26T10:48:44.864Z,5.90
2018-07-26T10:51:14.058Z,5.23
2018-07-26T10:53:43.216Z,5.33
2018-07-26T10:56:12.361Z,5.87
2018-07-26T10:58:41.536Z,5.23
2018-07-26T11:01:11.553Z,5.33
2018-07-26T11:03:40.739Z,5.40
2018-07-26T11:06:09.923Z,5.00
2018-07-26T11:11:39.340Z,5.80
2018-07-26T11:14:09.048Z,5.90
2018-07-26T11:16:38.316Z,5.93
2018-07-26T11:19:07.827Z,5.37
2018-07-26T11:21:36.962Z,6.90
2018-07-26T11:24:06.386Z,5.30
2018-07-26T11:26:35.562Z,5.30
2018-07-26T11:29:04.843Z,6.37
2018-07-26T11:31:34.154Z,5.50
2018-07-26T11:34:03.551Z,6.30
2018-07-26T11:36:32.693Z,6.17
2018-07-26T11:39:01.853Z,5.53
2018-07-26T11:41:31.109Z,5.73
2018-07-26T11:44:00.206Z,5.10
2018-07-26T11:46:29.412Z,5.13
2018-07-26T11:48:58.605Z,5.27
2018-07-26T11:51:27.523Z,4.40
2018-07-26T11:53:56.888Z,4.80
2018-07-26T11:56:26.104Z,5.30
2018-07-26T11:58:55.255Z,5.50
2018-07-26T12:01:24.416Z,6.20
2018-07-26T12:03:53.574Z,5.97
2018-07-26T12:06:22.722Z,5.90
2018-07-26T12:08:51.912Z,5.53
2018-07-26T12:11:21.077Z,5.40
2018-07-26T12:13:50.475Z,5.50
2018-07-26T12:16:20.864Z,5.23
2018-07-26T12:18:50.023Z,6.97
2018-07-26T12:21:19.182Z,6.03
2018-07-26T12:23:48.366Z,5.43
2018-07-26T12:26:17.504Z,5.90
2018-07-26T12:28:46.671Z,6.50
2018-07-26T12:31:15.862Z,6.23
2018-07-26T12:33:45.023Z,5.90
2018-07-26T12:36:14.684Z,6.43
2018-07-26T12:38:43.848Z,6.43
2018-07-26T12:41:13.009Z,5.30
2018-07-26T12:43:42.235Z,5.50
2018-07-26T12:46:11.406Z,5.90
2018-07-26T12:48:40.902Z,5.90
2018-07-26T12:51:10.050Z,6.27
2018-07-26T12:53:39.492Z,6.23
2018-07-26T12:56:08.656Z,6.03
2018-07-26T12:58:37.814Z,5.93
2018-07-26T13:01:07.306Z,5.93
2018-07-26T13:03:36.457Z,6.63
2018-07-26T13:06:05.626Z,6.50
2018-07-26T13:08:34.901Z,6.53
2018-07-26T13:11:04.039Z,5.30
2018-07-26T13:13:33.219Z,6.93
2018-07-26T13:16:02.475Z,6.90
2018-07-26T13:18:31.617Z,6.80
2018-07-26T13:21:00.757Z,7.17
2018-07-26T13:23:29.949Z,6.13
2018-07-26T13:25:59.093Z,6.70
2018-07-26T13:28:28.236Z,6.90
2018-07-26T13:30:57.406Z,7.27
2018-07-26T13:33:26.656Z,6.77
2018-07-26T13:35:55.943Z,6.27
2018-07-26T13:38:25.084Z,6.07
2018-07-26T13:40:54.221Z,6.90
2018-07-26T13:43:23.373Z,7.10
2018-07-26T13:45:52.590Z,6.50
2018-07-26T13:48:21.756Z,8.23
2018-07-26T13:50:50.918Z,6.63
2018-07-26T13:53:20.084Z,6.73
2018-07-26T13:55:49.225Z,5.87
2018-07-26T13:58:18.478Z,6.23
2018-07-26T14:00:47.656Z,7.10
2018-07-26T14:03:16.841Z,7.77
2018-07-26T14:05:46.012Z,6.63
2018-07-26T14:08:15.252Z,6.60
2018-07-26T14:10:44.427Z,6.20
2018-07-26T14:13:13.629Z,6.30
2018-07-26T14:15:43.562Z,5.80
2018-07-26T14:18:13.044Z,6.10
2018-07-26T14:20:42.300Z,5.77
2018-07-26T14:23:16.791Z,6.00
2018-07-26T14:25:45.942Z,5.47
2018-07-26T14:28:15.097Z,6.60
2018-07-26T14:30:44.261Z,6.33
2018-07-26T14:33:13.421Z,5.70
2018-07-26T14:35:42.605Z,5.80
2018-07-26T14:38:21.474Z,5.60
2018-07-26T14:40:50.585Z,5.83
2018-07-26T14:43:19.977Z,6.77
2018-07-26T14:45:49.228Z,6.33
2018-07-26T14:48:18.464Z,6.00
2018-07-26T14:50:47.650Z,6.23
2018-07-26T14:53:16.813Z,6.30
2018-07-26T14:55:45.957Z,6.07
2018-07-26T14:58:15.109Z,5.83
2018-07-26T15:00:44.372Z,6.10
2018-07-26T15:03:13.517Z,5.90
2018-07-26T15:05:42.660Z,6.30
2018-07-26T15:08:11.842Z,8.33
2018-07-26T15:10:41.039Z,5.90
2018-07-26T15:13:10.195Z,5.93
2018-07-26T15:15:39.397Z,6.40
2018-07-26T15:18:08.530Z,6.37
2018-07-26T15:20:37.895Z,6.17
2018-07-26T15:23:07.082Z,5.70
2018-07-26T15:25:36.237Z,5.83
2018-07-26T15:28:05.441Z,5.80
2018-07-26T15:30:34.630Z,6.10
2018-07-26T15:33:19.949Z,5.00
2018-07-26T15:35:49.124Z,5.20
2018-07-26T15:38:18.268Z,5.27
2018-07-26T15:40:47.417Z,5.30
2018-07-26T15:43:20.050Z,5.17
2018-07-26T15:45:49.186Z,5.53
2018-07-26T15:48:22.317Z,5.83
2018-07-26T15:50:51.461Z,5.40
2018-07-26T15:53:20.650Z,5.67
2018-07-26T15:55:49.834Z,5.57
2018-07-26T15:58:18.984Z,4.90
2018-07-26T16:01:19.300Z,4.77
2018-07-26T16:03:48.442Z,4.90
2018-07-26T16:06:17.582Z,4.47
2018-07-26T16:08:46.817Z,5.07
2018-07-26T16:11:15.945Z,4.90
2018-07-26T16:13:45.147Z,4.83
2018-07-26T16:16:14.342Z,4.53
2018-07-26T16:18:43.476Z,5.37
2018-07-26T16:21:12.831Z,4.73
2018-07-26T16:23:42.001Z,4.80
2018-07-26T16:26:11.144Z,4.93
2018-07-26T16:31:40.171Z,4.73
2018-07-26T16:34:09.394Z,4.87
2018-07-26T16:36:38.507Z,5.03
2018-07-26T16:39:10.665Z,5.80
2018-07-26T16:41:39.841Z,5.50
2018-07-26T16:44:21.817Z,4.63
2018-07-26T16:47:18.298Z,4.97
2018-07-26T16:49:48.558Z,5.03
2018-07-26T16:52:17.758Z,4.90
2018-07-26T16:54:46.969Z,4.90
2018-07-26T16:57:16.154Z,5.40
2018-07-26T17:02:45.956Z,5.20
2018-07-26T17:05:15.192Z,5.40
2018-07-26T17:07:44.330Z,5.30
2018-07-26T17:10:13.533Z,5.10
2018-07-26T17:12:42.721Z,5.00
2018-07-26T17:15:12.046Z,5.40
2018-07-26T17:17:41.341Z,4.63
2018-07-26T17:20:10.883Z,6.33
2018-07-26T17:22:40.162Z,4.90
2018-07-26T17:25:09.370Z,5.00
2018-07-26T17:27:38.506Z,5.10
2018-07-26T17:30:07.744Z,5.03
2018-07-26T17:32:36.894Z,5.10
2018-07-26T17:35:06.066Z,5.03
2018-07-26T17:37:35.263Z,5.27
2018-07-26T17:40:05.275Z,4.70
2018-07-26T17:42:34.440Z,5.33
2018-07-26T17:45:04.597Z,4.40
2018-07-26T17:47:33.829Z,5.03
2018-07-26T17:50:02.979Z,5.30
2018-07-26T17:52:32.197Z,5.40
2018-07-26T17:55:20.653Z,5.30
2018-07-26T17:57:49.994Z,5.57
2018-07-26T18:00:18.909Z,5.53
2018-07-26T18:02:48.068Z,6.07
2018-07-26T18:05:17.209Z,5.00
2018-07-26T18:07:46.360Z,5.43
2018-07-26T18:10:15.787Z,5.50
2018-07-26T18:12:44.935Z,4.70
2018-07-26T18:15:14.076Z,5.43
2018-07-26T18:17:43.383Z,5.20
2018-07-26T18:20:12.529Z,4.83
2018-07-26T18:22:41.898Z,5.27
2018-07-26T18:25:11.186Z,5.00
2018-07-26T18:27:40.354Z,5.30
2018-07-26T18:30:09.677Z,5.60
2018-07-26T18:32:38.971Z,5.00
2018-07-26T18:35:08.288Z,5.23
2018-07-26T18:37:37.430Z,4.80
2018-07-26T18:40:07.873Z,5.17
2018-07-26T18:42:37.083Z,5.00
2018-07-26T18:45:07.836Z,6.07
2018-07-26T18:47:37.247Z,4.70
2018-07-26T18:50:07.362Z,4.33
2018-07-26T18:52:36.538Z,4.87
2018-07-26T18:55:07.391Z,5.73
2018-07-26T18:57:36.570Z,5.10
2018-07-26T19:00:08.433Z,4.83
2018-07-26T19:02:37.593Z,5.20
2018-07-26T19:05:07.329Z,5.00
2018-07-26T19:07:37.090Z,5.60
2018-07-26T19:10:09.389Z,5.20
2018-07-26T19:12:38.961Z,4.70
2018-07-26T19:15:11.663Z,5.80
2018-07-26T19:17:40.881Z,7.57
2018-07-26T19:20:11.419Z,7.00
2018-07-26T19:22:40.594Z,6.20
2018-07-26T19:25:10.865Z,5.53
2018-07-26T19:27:40.054Z,5.40
2018-07-26T19:30:11.643Z,7.83
2018-07-26T19:33:20.356Z,4.63
2018-07-26T19:35:49.531Z,4.77
2018-07-26T19:38:18.719Z,5.33
2018-07-26T19:43:47.678Z,5.13
2018-07-26T19:46:21.781Z,4.90
2018-07-26T19:48:50.988Z,5.60
2018-07-26T19:51:20.149Z,4.50
2018-07-26T19:54:18.535Z,4.70
2018-07-26T19:56:48.757Z,5.70
2018-07-26T19:59:17.954Z,6.50
2018-07-26T20:01:47.155Z,5.60
2018-07-26T20:04:16.373Z,4.80
2018-07-26T20:06:45.491Z,5.83
2018-07-26T20:09:25.913Z,5.30
2018-07-26T20:11:55.145Z,5.20
2018-07-26T20:14:24.333Z,4.53
2018-07-26T20:16:53.530Z,5.40
2018-07-26T20:19:23.695Z,4.50
2018-07-26T20:21:52.924Z,5.07
2018-07-26T20:24:22.157Z,5.80
2018-07-26T20:26:51.480Z,4.73
2018-07-26T20:29:20.689Z,4.57
2018-07-26T20:31:49.836Z,5.30
2018-07-26T20:34:22.027Z,5.50
2018-07-26T20:36:51.175Z,5.30
2018-07-26T20:39:20.379Z,5.43
2018-07-26T20:41:49.596Z,5.77
2018-07-26T20:44:18.819Z,5.10
2018-07-26T20:46:47.966Z,4.93
2018-07-26T20:49:20.590Z,4.90
2018-07-26T20:51:49.731Z,5.17
2018-07-26T20:54:19.015Z,5.40
2018-07-26T20:59:48.493Z,5.80
2018-07-26T21:02:21.414Z,5.40
2018-07-26T21:04:50.619Z,5.40
2018-07-26T21:07:19.769Z,4.80
2018-07-26T21:09:48.931Z,5.10
2018-07-26T21:12:17.960Z,5.30
2018-07-26T21:14:47.102Z,5.53
2018-07-26T21:17:16.300Z,5.43
2018-07-26T21:19:45.473Z,6.03
2018-07-26T21:22:14.628Z,7.80
2018-07-26T21:24:43.785Z,5.00
2018-07-26T21:27:14.801Z,5.27
2018-07-26T21:29:43.969Z,5.00
2018-07-26T21:32:20.758Z,7.70
2018-07-26T21:34:49.910Z,10.57
2018-07-26T21:37:19.073Z,4.60
2018-07-26T21:39:48.351Z,7.57
2018-07-26T21:42:17.504Z,9.07
2018-07-26T21:44:46.662Z,6.13
2018-07-26T21:47:15.833Z,6.53
2018-07-26T21:49:44.968Z,6.63
2018-07-26T21:52:14.235Z,5.67
2018-07-26T21:54:43.414Z,6.00
2018-07-26T21:57:12.621Z,5.60
2018-07-26T21:59:41.814Z,6.53
2018-07-26T22:02:21.118Z,5.70
2018-07-26T22:04:50.645Z,6.50
2018-07-26T22:07:21.708Z,5.67
2018-07-26T22:09:51.118Z,6.50
2018-07-26T22:12:20.241Z,5.87
2018-07-26T22:14:49.411Z,6.17
2018-07-26T22:17:18.553Z,5.83
2018-07-26T22:19:47.806Z,7.87
2018-07-26T22:22:23.168Z,6.97
2018-07-26T22:24:52.345Z,9.00
2018-07-26T22:27:21.607Z,6.80
2018-07-26T22:29:50.761Z,7.47
2018-07-26T22:32:20.631Z,6.97
2018-07-26T22:34:49.828Z,7.97
2018-07-26T22:37:19.042Z,5.60
2018-07-26T22:39:48.239Z,7.07
2018-07-26T22:42:17.532Z,7.50
2018-07-26T22:44:46.725Z,10.13
2018-07-26T22:47:16.414Z,8.97
2018-07-26T22:52:45.802Z,9.60
2018-07-26T22:55:14.946Z,9.17
2018-07-26T22:57:44.149Z,8.10
2018-07-26T23:00:13.313Z,9.50
2018-07-26T23:02:42.553Z,10.20
2018-07-26T23:05:11.813Z,8.73
2018-07-26T23:07:40.978Z,10.67
2018-07-26T23:10:11.074Z,7.13
2018-07-26T23:12:40.444Z,6.67
2018-07-26T23:15:10.883Z,6.87
2018-07-26T23:17:40.604Z,7.17
2018-07-26T23:20:11.270Z,6.90
2018-07-26T23:22:40.452Z,6.90
2018-07-26T23:28:22.041Z,6.40
2018-07-26T23:30:51.213Z,8.07
2018-07-26T23:33:20.874Z,7.73
2018-07-26T23:35:50.026Z,7.80
2018-07-26T23:38:22.411Z,7.60
2018-07-26T23:40:51.565Z,7.80
2018-07-26T23:43:20.563Z,7.30
2018-07-26T23:45:49.733Z,7.80
2018-07-26T23:48:22.069Z,6.97
2018-07-26T23:50:51.273Z,8.50
2018-07-26T23:53:20.398Z,7.40
2018-07-26T23:55:49.573Z,7.67
2018-07-26T23:58:21.738Z,6.87
